Time;durP1;ratioP1;P1;durP2;ratioP2;P2;SDS_P1;SDS_P2;PMS_P1;PMS_P2;Temp;Humidity;BMP_temperature;BMP_pressure;BME280_temperature;BME280_humidity;BME280_pressure;Samples;Min_cycle;Max_cycle;Signal;HPM_P1;HPM_P2
2022/08/09 00:01:28;;;;;;;10.50;4.07;;;;;;;;;;5019903;28;20054;-78
2022/08/09 00:04:16;;;;;;;6.88;3.30;;;;;;;;;;5019175;28;20054;-78
2022/08/09 00:07:02;;;;;;;6.07;3.10;;;;;;;;;;5024846;28;20137;-77
2022/08/09 00:09:34;;;;;;;5.68;3.47;;;;;;;;;;5021157;28;20112;-78
2022/08/09 00:12:03;;;;;;;8.88;4.35;;;;;;;;;;5020277;28;20061;-77
2022/08/09 00:14:34;;;;;;;8.73;3.80;;;;;;;;;;5024439;28;20057;-78
2022/08/09 00:17:04;;;;;;;8.65;4.03;;;;;;;;;;5020967;28;20056;-78
2022/08/09 00:19:54;;;;;;;10.32;4.75;;;;;;;;;;5020975;28;20055;-77
2022/08/09 00:22:23;;;;;;;9.57;3.92;;;;;;;;;;5023608;28;20050;-78
2022/08/09 00:25:01;;;;;;;9.40;4.20;;;;;;;;;;5024541;28;20054;-77
2022/08/09 00:27:36;;;;;;;9.38;4.07;;;;;;;;;;5023849;28;20124;-77
2022/08/09 00:30:09;;;;;;;;;;;;;;;;;;5026302;28;20046;-77
2022/08/09 00:32:51;;;;;;;7.80;3.42;;;;;;;;;;5020636;28;45810;-77
2022/08/09 00:35:18;;;;;;;9.23;3.65;;;;;;;;;;5024117;28;20516;-77
2022/08/09 00:37:46;;;;;;;7.90;3.53;;;;;;;;;;5018038;28;20058;-77
2022/08/09 00:40:15;;;;;;;7.10;3.80;;;;;;;;;;5021529;28;20053;-78
2022/08/09 00:42:45;;;;;;;8.68;3.78;;;;;;;;;;5024516;28;20051;-77
2022/08/09 00:45:33;;;;;;;6.13;3.50;;;;;;;;;;5024607;28;20050;-78
2022/08/09 00:48:02;;;;;;;7.03;3.42;;;;;;;;;;5021905;28;20113;-78
2022/08/09 00:50:29;;;;;;;10.63;3.40;;;;;;;;;;5025626;28;20054;-78
2022/08/09 00:52:57;;;;;;;4.88;3.45;;;;;;;;;;5022253;28;20800;-78
2022/08/09 00:55:26;;;;;;;5.25;3.28;;;;;;;;;;5023870;28;20053;-78
2022/08/09 00:58:14;;;;;;;7.28;3.22;;;;;;;;;;5020065;28;20063;-78
2022/08/09 01:00:52;;;;;;;6.13;3.60;;;;;;;;;;5022794;28;20538;-77
2022/08/09 01:03:24;;;;;;;7.80;4.45;;;;;;;;;;5020313;28;20849;-77
2022/08/09 01:06:10;;;;;;;7.38;4.03;;;;;;;;;;5022197;28;20042;-77
2022/08/09 01:09:03;;;;;;;8.07;3.63;;;;;;;;;;5025580;28;20057;-78
2022/08/09 01:11:38;;;;;;;10.13;4.20;;;;;;;;;;5017590;28;20050;-78
2022/08/09 01:14:08;;;;;;;8.68;4.20;;;;;;;;;;5022075;28;20112;-77
2022/08/09 01:16:43;;;;;;;9.00;4.53;;;;;;;;;;5026621;28;20057;-78
2022/08/09 01:19:34;;;;;;;8.18;4.25;;;;;;;;;;5019227;28;20054;-78
2022/08/09 01:22:17;;;;;;;7.00;4.55;;;;;;;;;;5016349;28;20920;-77
2022/08/09 01:25:06;;;;;;;7.63;4.55;;;;;;;;;;5023466;28;20053;-78
2022/08/09 01:27:34;;;;;;;7.25;4.53;;;;;;;;;;5018790;28;20061;-78
2022/08/09 01:30:05;;;;;;;7.30;4.78;;;;;;;;;;5016743;28;20054;-78
2022/08/09 01:32:55;;;;;;;;;;;;;;;;;;5016165;28;20119;-78
2022/08/09 01:35:29;;;;;;;6.70;4.13;;;;;;;;;;5021733;28;44591;-77
2022/08/09 01:38:08;;;;;;;7.50;4.45;;;;;;;;;;5021018;28;20053;-77
2022/08/09 01:40:44;;;;;;;9.80;4.80;;;;;;;;;;5024351;28;20133;-77
2022/08/09 01:43:31;;;;;;;7.05;4.15;;;;;;;;;;5020148;28;20083;-77
2022/08/09 01:46:14;;;;;;;9.23;4.47;;;;;;;;;;5023141;28;20069;-77
2022/08/09 01:48:52;;;;;;;6.60;4.13;;;;;;;;;;5018243;28;20050;-77
2022/08/09 01:51:21;;;;;;;9.98;4.53;;;;;;;;;;5022397;28;20058;-78
2022/08/09 01:53:53;;;;;;;9.40;4.28;;;;;;;;;;5018399;28;20832;-78
2022/08/09 01:56:27;;;;;;;7.70;4.15;;;;;;;;;;5020527;28;20065;-77
2022/08/09 01:58:56;;;;;;;7.20;4.53;;;;;;;;;;5023946;28;20054;-78
2022/08/09 02:01:26;;;;;;;6.63;4.00;;;;;;;;;;5017858;28;20078;-78
2022/08/09 02:04:14;;;;;;;8.80;4.22;;;;;;;;;;5018787;28;20152;-78
2022/08/09 02:09:30;;;;;;;7.72;3.90;;;;;;;;;;5020706;28;20057;-77
2022/08/09 02:12:09;;;;;;;7.53;3.97;;;;;;;;;;5016265;28;20054;-79
2022/08/09 02:14:41;;;;;;;7.13;3.53;;;;;;;;;;5021646;28;20060;-78
2022/08/09 02:17:10;;;;;;;7.20;4.28;;;;;;;;;;5023822;28;20061;-78
2022/08/09 02:19:57;;;;;;;6.07;4.20;;;;;;;;;;5019315;28;20084;-78
2022/08/09 02:22:28;;;;;;;7.00;3.75;;;;;;;;;;5022909;28;20060;-79
2022/08/09 02:25:04;;;;;;;7.70;3.90;;;;;;;;;;5023633;28;20046;-79
2022/08/09 02:27:34;;;;;;;7.20;4.20;;;;;;;;;;5019531;28;20145;-78
2022/08/09 02:30:22;;;;;;;7.47;4.70;;;;;;;;;;5014677;28;20065;-78
2022/08/09 02:32:52;;;;;;;7.05;4.70;;;;;;;;;;5020123;28;20759;-78
2022/08/09 02:35:22;;;;;;;6.70;4.53;;;;;;;;;;5018390;28;20061;-78
2022/08/09 02:38:10;;;;;;;7.10;4.65;;;;;;;;;;5017410;28;20137;-79
2022/08/09 02:40:48;;;;;;;10.40;4.93;;;;;;;;;;5029086;28;20058;-78
2022/08/09 02:43:16;;;;;;;9.05;5.50;;;;;;;;;;5020372;28;20137;-79
2022/08/09 02:45:48;;;;;;;10.88;5.35;;;;;;;;;;5018037;28;20105;-78
2022/08/09 02:48:19;;;;;;;7.55;5.20;;;;;;;;;;5021859;28;20153;-78
2022/08/09 02:50:58;;;;;;;10.20;5.20;;;;;;;;;;5017703;28;20575;-77
2022/08/09 02:53:39;;;;;;;10.52;5.68;;;;;;;;;;5025260;28;20049;-78
2022/08/09 02:56:20;;;;;;;8.80;5.35;;;;;;;;;;5019754;28;20132;-78
2022/08/09 02:58:48;;;;;;;8.77;5.82;;;;;;;;;;5022492;28;20057;-78
2022/08/09 03:01:18;;;;;;;7.78;5.43;;;;;;;;;;5021610;28;20050;-78
2022/08/09 03:04:00;;;;;;;10.75;5.80;;;;;;;;;;5024860;28;20056;-79
2022/08/09 03:06:45;;;;;;;10.30;5.38;;;;;;;;;;5020914;28;20500;-79
2022/08/09 03:09:15;;;;;;;8.43;5.72;;;;;;;;;;5024216;28;20125;-79
2022/08/09 03:11:43;;;;;;;8.38;4.82;;;;;;;;;;5021219;28;20046;-78
2022/08/09 03:14:31;;;;;;;8.55;5.38;;;;;;;;;;5018588;28;20056;-79
2022/08/09 03:17:02;;;;;;;7.10;4.90;;;;;;;;;;5021176;28;20145;-78
2022/08/09 03:19:32;;;;;;;11.25;4.80;;;;;;;;;;5024001;28;20054;-78
2022/08/09 03:22:20;;;;;;;6.63;4.70;;;;;;;;;;5016924;28;20057;-78
2022/08/09 03:24:57;;;;;;;6.95;5.00;;;;;;;;;;5021781;28;20159;-79
2022/08/09 03:27:46;;;;;;;8.93;4.93;;;;;;;;;;5023005;28;20455;-78
2022/08/09 03:30:14;;;;;;;8.10;4.93;;;;;;;;;;5022039;28;20108;-79
2022/08/09 03:33:02;;;;;;;10.05;4.72;;;;;;;;;;5016756;28;20056;-78
2022/08/09 03:35:39;;;;;;;7.03;4.65;;;;;;;;;;5031739;28;20103;-79
2022/08/09 03:38:26;;;;;;;7.43;4.47;;;;;;;;;;5031492;28;20057;-79
2022/08/09 03:40:56;;;;;;;9.82;4.43;;;;;;;;;;5017852;28;20070;-79
2022/08/09 03:43:28;;;;;;;7.20;4.70;;;;;;;;;;5024464;28;20052;-79
2022/08/09 03:45:59;;;;;;;9.25;5.40;;;;;;;;;;5023327;28;20082;-78
2022/08/09 03:48:51;;;;;;;8.85;4.60;;;;;;;;;;5020597;28;20879;-78
2022/08/09 03:51:21;;;;;;;8.93;4.70;;;;;;;;;;5029079;28;20061;-78
2022/08/09 03:54:09;;;;;;;9.48;4.57;;;;;;;;;;5022532;28;20064;-78
2022/08/09 03:56:39;;;;;;;6.03;4.55;;;;;;;;;;5020449;28;20069;-79
2022/08/09 03:59:12;;;;;;;6.55;4.10;;;;;;;;;;5020769;28;20153;-79
2022/08/09 04:01:48;;;;;;;5.85;3.50;;;;;;;;;;5019732;28;20061;-78
2022/08/09 04:04:16;;;;;;;5.90;3.60;;;;;;;;;;5039357;28;20120;-78
2022/08/09 04:06:44;;;;;;;5.78;3.35;;;;;;;;;;5023217;28;20049;-78
2022/08/09 04:09:15;;;;;;;7.25;3.08;;;;;;;;;;5020108;28;20046;-79
2022/08/09 04:12:08;;;;;;;3.88;2.22;;;;;;;;;;5020312;28;20055;-79
2022/08/09 04:14:38;;;;;;;4.18;2.55;;;;;;;;;;5023943;28;20101;-79
2022/08/09 04:17:28;;;;;;;3.83;2.72;;;;;;;;;;5022807;28;20447;-78
2022/08/09 04:19:58;;;;;;;9.65;4.03;;;;;;;;;;5024746;28;20508;-79
2022/08/09 04:22:29;;;;;;;7.00;3.90;;;;;;;;;;5023024;28;20065;-78
2022/08/09 04:24:58;;;;;;;5.10;3.55;;;;;;;;;;5024799;28;20826;-78
2022/08/09 04:27:28;;;;;;;7.70;4.68;;;;;;;;;;5025669;28;20081;-78
2022/08/09 04:29:58;;;;;;;9.68;4.70;;;;;;;;;;5027057;28;20050;-78
2022/08/09 04:32:28;;;;;;;7.97;4.65;;;;;;;;;;5019882;28;20054;-78
2022/08/09 04:35:04;;;;;;;11.95;4.90;;;;;;;;;;5019013;28;20077;-78
2022/08/09 04:37:36;;;;;;;9.85;5.38;;;;;;;;;;5021320;28;20053;-78
2022/08/09 04:40:13;;;;;;;8.25;5.53;;;;;;;;;;5024653;28;20051;-78
2022/08/09 04:42:58;;;;;;;11.48;6.63;;;;;;;;;;5018190;28;20057;-78
2022/08/09 04:45:25;;;;;;;11.30;5.72;;;;;;;;;;5020318;28;20054;-78
2022/08/09 04:47:58;;;;;;;12.05;6.30;;;;;;;;;;5035219;28;20104;-78
2022/08/09 04:50:34;;;;;;;8.98;5.72;;;;;;;;;;5018390;28;20150;-78
2022/08/09 04:53:06;;;;;;;9.73;6.00;;;;;;;;;;5019960;28;20626;-78
2022/08/09 04:55:43;;;;;;;9.80;5.75;;;;;;;;;;5020191;28;20276;-78
2022/08/09 04:58:28;;;;;;;8.95;5.93;;;;;;;;;;5020607;28;20050;-78
2022/08/09 05:01:00;;;;;;;12.52;5.78;;;;;;;;;;5015776;28;20145;-78
2022/08/09 05:03:27;;;;;;;10.45;5.47;;;;;;;;;;5017497;28;20068;-78
2022/08/09 05:06:10;;;;;;;7.70;5.47;;;;;;;;;;5022553;28;20069;-78
2022/08/09 05:08:37;;;;;;;11.57;6.07;;;;;;;;;;5019202;28;20057;-79
2022/08/09 05:11:10;;;;;;;11.70;5.95;;;;;;;;;;5021660;28;20050;-79
2022/08/09 05:13:39;;;;;;;10.77;6.55;;;;;;;;;;5021001;28;20061;-79
2022/08/09 05:16:07;;;;;;;17.60;6.97;;;;;;;;;;5023400;28;20050;-78
2022/08/09 05:18:36;;;;;;;12.30;6.60;;;;;;;;;;5018791;28;20089;-79
2022/08/09 05:21:23;;;;;;;18.42;6.97;;;;;;;;;;5030546;28;20471;-78
2022/08/09 05:23:56;;;;;;;17.20;7.03;;;;;;;;;;5024835;28;20082;-78
2022/08/09 05:26:28;;;;;;;14.95;8.02;;;;;;;;;;5020332;28;20054;-78
2022/08/09 05:29:18;;;;;;;13.32;7.75;;;;;;;;;;5025156;28;20759;-79
2022/08/09 05:32:00;;;;;;;15.75;7.43;;;;;;;;;;5021141;28;20054;-79
2022/08/09 05:34:31;;;;;;;15.18;7.65;;;;;;;;;;5022916;28;20105;-78
2022/08/09 05:36:59;;;;;;;17.27;7.85;;;;;;;;;;4989346;28;1063373;-79
2022/08/09 05:39:28;;;;;;;12.10;7.07;;;;;;;;;;5024765;28;20061;-78
2022/08/09 05:42:09;;;;;;;15.75;7.55;;;;;;;;;;5022481;28;20615;-78
2022/08/09 05:44:47;;;;;;;11.88;6.93;;;;;;;;;;5020537;28;20060;-77
2022/08/09 05:47:18;;;;;;;13.55;7.03;;;;;;;;;;5021779;28;20155;-77
2022/08/09 05:49:48;;;;;;;13.57;7.28;;;;;;;;;;5024814;28;21025;-78
2022/08/09 05:52:35;;;;;;;12.20;7.30;;;;;;;;;;5020786;28;20058;-78
2022/08/09 05:55:05;;;;;;;13.55;7.05;;;;;;;;;;5014638;28;20102;-79
2022/08/09 05:57:35;;;;;;;12.43;6.53;;;;;;;;;;5019630;28;20484;-79
2022/08/09 06:00:23;;;;;;;14.75;6.75;;;;;;;;;;5021145;28;20862;-79
2022/08/09 06:02:51;;;;;;;14.07;7.00;;;;;;;;;;5019565;28;20060;-79
2022/08/09 06:05:20;;;;;;;12.32;6.35;;;;;;;;;;5022457;28;20080;-79
2022/08/09 06:08:07;;;;;;;10.40;6.20;;;;;;;;;;5021407;28;20803;-80
2022/08/09 06:10:37;;;;;;;13.35;6.53;;;;;;;;;;5019241;28;20919;-80
2022/08/09 06:13:08;;;;;;;10.95;6.25;;;;;;;;;;5016692;28;20214;-79
2022/08/09 06:15:46;;;;;;;13.88;6.78;;;;;;;;;;5021901;28;20078;-79
2022/08/09 06:18:17;;;;;;;11.27;6.53;;;;;;;;;;5024244;28;20049;-79
2022/08/09 06:20:46;;;;;;;10.48;6.90;;;;;;;;;;5017954;28;20256;-79
2022/08/09 06:23:25;;;;;;;12.25;6.57;;;;;;;;;;5016439;28;20054;-78
2022/08/09 06:26:17;;;;;;;11.45;6.88;;;;;;;;;;5023388;28;20054;-78
2022/08/09 06:28:48;;;;;;;11.05;6.43;;;;;;;;;;5021285;28;20054;-78
2022/08/09 06:31:15;;;;;;;12.73;7.13;;;;;;;;;;5022679;28;20049;-77
2022/08/09 06:33:43;;;;;;;13.10;5.50;;;;;;;;;;5027358;28;20122;-79
2022/08/09 06:36:19;;;;;;;18.95;6.97;;;;;;;;;;5020890;28;20050;-78
2022/08/09 06:38:53;;;;;;;14.38;6.88;;;;;;;;;;5022619;28;20058;-79
2022/08/09 06:41:23;;;;;;;9.80;6.15;;;;;;;;;;5027634;28;20144;-79
2022/08/09 06:44:13;;;;;;;11.80;6.20;;;;;;;;;;5022696;28;20061;-80
2022/08/09 06:46:44;;;;;;;10.35;6.38;;;;;;;;;;5020856;28;20461;-80
2022/08/09 06:49:15;;;;;;;12.65;5.72;;;;;;;;;;5021158;28;20132;-79
2022/08/09 06:51:55;;;;;;;11.77;6.93;;;;;;;;;;5021406;28;20058;-78
2022/08/09 06:54:23;;;;;;;17.80;6.90;;;;;;;;;;5015953;28;20173;-76
2022/08/09 06:56:52;;;;;;;14.88;7.10;;;;;;;;;;5031697;28;20086;-76
2022/08/09 06:59:19;;;;;;;13.25;5.97;;;;;;;;;;5016845;28;20061;-78
2022/08/09 07:02:07;;;;;;;10.88;5.90;;;;;;;;;;5018207;28;20051;-77
2022/08/09 07:04:35;;;;;;;11.82;5.75;;;;;;;;;;5016975;28;20104;-77
2022/08/09 07:07:03;;;;;;;10.98;5.72;;;;;;;;;;5020088;28;20054;-78
2022/08/09 07:09:38;;;;;;;8.43;5.22;;;;;;;;;;5024202;28;20516;-77
2022/08/09 07:12:23;;;;;;;12.38;5.30;;;;;;;;;;5019732;28;20054;-78
2022/08/09 07:15:07;;;;;;;10.55;5.50;;;;;;;;;;5019586;28;20046;-78
2022/08/09 07:17:57;;;;;;;10.35;5.05;;;;;;;;;;5015971;28;20050;-78
2022/08/09 07:20:29;;;;;;;9.65;5.07;;;;;;;;;;5020186;28;20082;-78
2022/08/09 07:22:57;;;;;;;8.48;4.95;;;;;;;;;;5032459;28;20046;-79
2022/08/09 07:25:28;;;;;;;9.52;4.80;;;;;;;;;;5024392;28;20061;-77
2022/08/09 07:28:04;;;;;;;8.02;4.55;;;;;;;;;;5023021;28;20061;-78
2022/08/09 07:30:35;;;;;;;11.40;4.53;;;;;;;;;;5019947;28;20057;-78
2022/08/09 07:33:03;;;;;;;8.00;4.43;;;;;;;;;;5028279;28;20068;-77
2022/08/09 07:35:43;;;;;;;7.68;4.38;;;;;;;;;;5022016;28;20058;-77
2022/08/09 07:38:20;;;;;;;6.93;3.95;;;;;;;;;;5025592;28;20060;-78
2022/08/09 07:40:49;;;;;;;7.72;4.15;;;;;;;;;;5024271;28;20289;-76
2022/08/09 07:43:36;;;;;;;10.50;4.68;;;;;;;;;;5023912;28;20512;-77
2022/08/09 07:46:15;;;;;;;7.28;3.60;;;;;;;;;;5020260;28;20050;-78
2022/08/09 07:48:46;;;;;;;6.47;3.33;;;;;;;;;;5022383;28;20050;-78
2022/08/09 07:51:27;;;;;;;7.93;3.70;;;;;;;;;;5018235;28;20145;-77
2022/08/09 07:54:15;;;;;;;7.60;3.35;;;;;;;;;;5026587;28;20060;-77
2022/08/09 07:56:45;;;;;;;6.53;3.00;;;;;;;;;;5021571;28;20076;-78
2022/08/09 07:59:16;;;;;;;8.00;2.72;;;;;;;;;;5023682;28;20046;-78
2022/08/09 08:02:01;;;;;;;3.92;2.50;;;;;;;;;;5013850;28;20054;-78
2022/08/09 08:04:28;;;;;;;7.68;3.00;;;;;;;;;;5019496;28;20050;-78
2022/08/09 08:06:59;;;;;;;7.20;2.38;;;;;;;;;;5025333;28;20047;-77
2022/08/09 08:09:46;;;;;;;4.93;2.13;;;;;;;;;;5020534;28;20077;-78
2022/08/09 08:12:30;;;;;;;5.47;2.33;;;;;;;;;;5019633;28;20055;-78
2022/08/09 08:14:58;;;;;;;4.78;1.73;;;;;;;;;;5018739;28;20047;-78
2022/08/09 08:17:26;;;;;;;6.57;2.28;;;;;;;;;;5016001;28;20557;-79
2022/08/09 08:20:13;;;;;;;3.58;1.50;;;;;;;;;;5018548;28;20058;-79
2022/08/09 08:22:41;;;;;;;3.15;1.63;;;;;;;;;;5022142;28;20053;-79
2022/08/09 08:25:09;;;;;;;2.65;1.40;;;;;;;;;;5017835;28;20056;-78
2022/08/09 08:27:42;;;;;;;2.50;1.48;;;;;;;;;;5022401;28;20091;-79
2022/08/09 08:30:18;;;;;;;3.55;1.30;;;;;;;;;;5024536;28;20057;-78
2022/08/09 08:32:46;;;;;;;3.10;1.42;;;;;;;;;;5022070;28;20137;-78
2022/08/09 08:35:20;;;;;;;4.35;1.33;;;;;;;;;;5025197;28;20113;-78
2022/08/09 08:37:49;;;;;;;3.65;1.40;;;;;;;;;;5021919;28;20959;-78
2022/08/09 08:40:37;;;;;;;3.85;1.45;;;;;;;;;;5024005;28;20057;-79
2022/08/09 08:43:05;;;;;;;3.83;1.30;;;;;;;;;;5024005;28;20545;-78
2022/08/09 08:45:49;;;;;;;4.47;1.17;;;;;;;;;;5023138;28;20050;-79
2022/08/09 08:48:21;;;;;;;4.80;1.30;;;;;;;;;;5023129;28;20054;-79
2022/08/09 08:50:55;;;;;;;4.25;1.20;;;;;;;;;;5024570;28;20065;-77
2022/08/09 08:53:22;;;;;;;3.55;1.10;;;;;;;;;;5022597;28;20046;-78
2022/08/09 08:55:59;;;;;;;4.07;1.40;;;;;;;;;;5029760;28;20057;-79
2022/08/09 08:58:28;;;;;;;3.33;1.20;;;;;;;;;;5028153;28;20040;-79
2022/08/09 09:01:01;;;;;;;4.72;1.67;;;;;;;;;;5033327;28;20097;-78
2022/08/09 09:03:36;;;;;;;6.55;1.50;;;;;;;;;;5034842;28;20112;-80
2022/08/09 09:06:06;;;;;;;3.15;1.45;;;;;;;;;;5032844;28;20050;-77
2022/08/09 09:08:37;;;;;;;2.47;1.08;;;;;;;;;;5047903;28;20077;-78
2022/08/09 09:11:08;;;;;;;;;;;;;;;;;;5045493;28;20080;-80
2022/08/09 09:13:44;;;;;;;2.85;1.10;;;;;;;;;;5042734;28;42634;-79
2022/08/09 09:16:33;;;;;;;3.08;1.20;;;;;;;;;;5037852;28;20077;-79
2022/08/09 09:19:07;;;;;;;3.15;1.10;;;;;;;;;;5033171;28;20141;-79
2022/08/09 09:21:58;;;;;;;1.23;0.70;;;;;;;;;;5039797;28;20050;-79
2022/08/09 09:24:28;;;;;;;3.50;0.90;;;;;;;;;;5040500;28;20050;-79
2022/08/09 09:26:57;;;;;;;4.68;1.20;;;;;;;;;;5039614;28;20046;-78
2022/08/09 09:29:43;;;;;;;3.35;1.10;;;;;;;;;;5039704;28;20094;-78
2022/08/09 09:32:31;;;;;;;3.97;1.20;;;;;;;;;;5034280;28;20050;-79
2022/08/09 09:35:06;;;;;;;2.97;1.30;;;;;;;;;;5034059;28;20061;-80
2022/08/09 09:37:37;;;;;;;2.78;1.08;;;;;;;;;;5040215;28;20050;-78
2022/08/09 09:40:07;;;;;;;2.70;1.00;;;;;;;;;;5042193;28;20062;-78
2022/08/09 09:42:39;;;;;;;1.30;0.93;;;;;;;;;;5032772;28;20046;-77
2022/08/09 09:45:13;;;;;;;2.28;0.90;;;;;;;;;;5029124;28;20073;-78
2022/08/09 09:47:55;;;;;;;;;;;;;;;;;;5034138;28;20200;-78
2022/08/09 09:50:41;;;;;;;3.42;0.77;;;;;;;;;;5033381;28;43963;-78
2022/08/09 09:53:19;;;;;;;1.52;0.85;;;;;;;;;;5030860;28;20064;-78
2022/08/09 09:55:50;;;;;;;2.08;0.60;;;;;;;;;;5031490;28;20057;-79
2022/08/09 09:58:43;;;;;;;1.52;0.70;;;;;;;;;;5038831;28;20049;-78
2022/08/09 10:01:21;;;;;;;2.13;0.73;;;;;;;;;;5021792;28;20050;-78
2022/08/09 10:04:08;;;;;;;2.40;0.70;;;;;;;;;;5023113;28;20061;-78
2022/08/09 10:06:40;;;;;;;1.58;0.77;;;;;;;;;;5030409;28;20053;-79
2022/08/09 10:09:14;;;;;;;2.83;0.65;;;;;;;;;;5028847;28;20042;-79
2022/08/09 10:12:00;;;;;;;1.40;0.63;;;;;;;;;;5031182;28;20073;-79
2022/08/09 10:14:47;;;;;;;0.77;0.60;;;;;;;;;;5022760;28;20049;-79
2022/08/09 10:17:18;;;;;;;4.00;0.93;;;;;;;;;;5031588;28;20152;-78
2022/08/09 10:20:07;;;;;;;2.10;0.70;;;;;;;;;;5028072;28;20052;-79
2022/08/09 10:22:41;;;;;;;1.33;0.77;;;;;;;;;;5024718;28;20061;-78
2022/08/09 10:25:09;;;;;;;1.45;0.80;;;;;;;;;;5022146;28;20046;-79
2022/08/09 10:27:44;;;;;;;4.93;1.08;;;;;;;;;;5027399;28;20057;-78
2022/08/09 10:30:24;;;;;;;3.77;0.53;;;;;;;;;;5036678;28;20042;-79
2022/08/09 10:33:12;;;;;;;4.22;0.93;;;;;;;;;;5022128;28;20058;-79
2022/08/09 10:35:59;;;;;;;1.42;0.63;;;;;;;;;;5025094;28;20054;-79
2022/08/09 10:38:27;;;;;;;1.38;0.77;;;;;;;;;;5025632;28;20057;-77
2022/08/09 10:41:16;;;;;;;1.45;0.65;;;;;;;;;;5031643;28;20050;-78
2022/08/09 10:43:46;;;;;;;3.97;1.02;;;;;;;;;;5024333;28;20127;-80
2022/08/09 10:46:41;;;;;;;2.00;0.70;;;;;;;;;;5031892;28;20049;-82
2022/08/09 10:49:42;;;;;;;1.13;0.70;;;;;;;;;;5041474;28;20050;-80
2022/08/09 10:52:38;;;;;;;1.25;0.57;;;;;;;;;;5037730;28;20046;-79
2022/08/09 10:55:23;;;;;;;0.60;0.60;;;;;;;;;;5030635;28;20061;-79
2022/08/09 10:57:54;;;;;;;2.78;0.80;;;;;;;;;;5022743;28;20088;-78
2022/08/09 11:00:37;;;;;;;1.98;0.93;;;;;;;;;;5025304;28;20500;-76
2022/08/09 11:03:26;;;;;;;1.35;0.70;;;;;;;;;;5025472;28;20045;-78
2022/08/09 11:06:17;;;;;;;2.97;0.82;;;;;;;;;;5034507;28;20066;-80
2022/08/09 11:08:46;;;;;;;2.40;0.70;;;;;;;;;;5034357;28;20038;-78
2022/08/09 11:11:20;;;;;;;3.33;0.60;;;;;;;;;;5030975;28;20092;-80
2022/08/09 11:14:08;;;;;;;0.80;0.70;;;;;;;;;;5031452;28;20069;-76
2022/08/09 11:16:42;;;;;;;1.52;0.70;;;;;;;;;;5019891;28;20516;-76
2022/08/09 11:19:13;;;;;;;1.10;0.60;;;;;;;;;;5015518;28;20054;-75
2022/08/09 11:21:51;;;;;;;1.95;0.75;;;;;;;;;;5019738;28;20054;-76
2022/08/09 11:24:51;;;;;;;1.88;0.90;;;;;;;;;;5018471;28;20112;-76
2022/08/09 11:27:37;;;;;;;0.90;0.60;;;;;;;;;;5018848;28;20058;-76
2022/08/09 11:30:28;;;;;;;1.55;0.68;;;;;;;;;;5015985;28;20072;-77
2022/08/09 11:33:19;;;;;;;0.95;0.70;;;;;;;;;;5016307;28;20105;-77
2022/08/09 11:35:58;;;;;;;2.20;0.80;;;;;;;;;;5020937;28;20054;-76
2022/08/09 11:38:27;;;;;;;2.75;0.82;;;;;;;;;;5020201;28;20051;-76
2022/08/09 11:41:06;;;;;;;0.63;0.60;;;;;;;;;;5018715;28;20053;-76
2022/08/09 11:43:40;;;;;;;0.60;0.60;;;;;;;;;;5017290;28;20055;-76
2022/08/09 11:46:09;;;;;;;0.60;0.43;;;;;;;;;;5020774;28;20054;-77
2022/08/09 11:48:49;;;;;;;2.97;0.80;;;;;;;;;;5013193;28;20051;-76
2022/08/09 11:51:16;;;;;;;1.85;0.70;;;;;;;;;;5018335;28;20133;-76
2022/08/09 11:54:17;;;;;;;3.42;0.90;;;;;;;;;;5011898;28;20077;-76
2022/08/09 11:57:18;;;;;;;1.25;0.85;;;;;;;;;;5018172;28;20059;-76
2022/08/09 12:00:09;;;;;;;1.65;0.90;;;;;;;;;;5013493;28;20728;-77
2022/08/09 12:02:45;;;;;;;1.42;0.57;;;;;;;;;;5018161;28;20049;-76
2022/08/09 12:05:18;;;;;;;3.17;0.82;;;;;;;;;;5028037;28;20057;-75
2022/08/09 12:07:49;;;;;;;1.55;0.95;;;;;;;;;;5024280;28;20058;-76
2022/08/09 12:10:22;;;;;;;3.85;0.90;;;;;;;;;;5025277;28;20046;-76
2022/08/09 12:13:06;;;;;;;2.50;0.80;;;;;;;;;;5027225;28;20064;-76
2022/08/09 12:16:06;;;;;;;1.73;1.00;;;;;;;;;;5024550;28;20100;-75
2022/08/09 12:18:54;;;;;;;1.77;0.70;;;;;;;;;;5024656;28;20050;-77
2022/08/09 12:21:27;;;;;;;1.65;0.70;;;;;;;;;;5030736;28;20058;-78
2022/08/09 12:24:05;;;;;;;;;;;;;;;;;;5033107;28;20050;-76
2022/08/09 12:26:49;;;;;;;1.73;0.80;;;;;;;;;;5025151;28;44718;-77
2022/08/09 12:29:36;;;;;;;1.15;0.68;;;;;;;;;;5030523;28;20933;-76
2022/08/09 12:32:27;;;;;;;1.77;0.75;;;;;;;;;;5035074;28;20042;-77
2022/08/09 12:35:00;;;;;;;4.53;0.82;;;;;;;;;;5025813;28;20140;-76
2022/08/09 12:37:32;;;;;;;1.60;0.80;;;;;;;;;;5029773;28;20077;-77
2022/08/09 12:40:16;;;;;;;0.70;0.70;;;;;;;;;;5036640;28;20114;-77
2022/08/09 12:42:45;;;;;;;2.08;0.90;;;;;;;;;;5025431;28;20050;-77
2022/08/09 12:45:17;;;;;;;0.93;0.70;;;;;;;;;;5033782;28;20061;-76
2022/08/09 12:48:01;;;;;;;1.90;0.80;;;;;;;;;;5022889;28;20058;-77
2022/08/09 12:50:29;;;;;;;0.70;0.70;;;;;;;;;;5030675;28;20989;-76
2022/08/09 12:52:56;;;;;;;1.35;0.77;;;;;;;;;;5027832;28;20050;-76
2022/08/09 12:55:43;;;;;;;1.13;0.57;;;;;;;;;;5029731;28;20049;-77
2022/08/09 12:58:31;;;;;;;1.70;0.90;;;;;;;;;;5032259;28;20057;-76
2022/08/09 13:01:00;;;;;;;0.90;0.73;;;;;;;;;;5029580;28;20062;-76
2022/08/09 13:03:34;;;;;;;2.47;0.80;;;;;;;;;;5027217;28;20058;-76
2022/08/09 13:06:36;;;;;;;3.28;0.90;;;;;;;;;;5024638;28;20054;-77
2022/08/09 13:09:12;;;;;;;1.38;0.82;;;;;;;;;;5030189;28;20121;-76
2022/08/09 13:11:42;;;;;;;0.93;0.80;;;;;;;;;;5027057;28;20141;-76
2022/08/09 13:14:10;;;;;;;2.75;0.77;;;;;;;;;;5031809;28;20140;-76
2022/08/09 13:17:02;;;;;;;0.95;0.75;;;;;;;;;;5042024;28;20045;-76
2022/08/09 13:19:30;;;;;;;2.88;0.90;;;;;;;;;;5026902;28;20889;-76
2022/08/09 13:22:22;;;;;;;1.88;0.80;;;;;;;;;;5031091;28;20046;-78
2022/08/09 13:25:10;;;;;;;2.20;0.88;;;;;;;;;;5033075;28;20038;-77
2022/08/09 13:27:40;;;;;;;0.80;0.80;;;;;;;;;;5033908;28;20084;-77
2022/08/09 13:30:21;;;;;;;2.22;0.70;;;;;;;;;;5029192;28;20110;-76
2022/08/09 13:33:09;;;;;;;0.85;0.70;;;;;;;;;;5030040;28;20065;-77
2022/08/09 13:35:38;;;;;;;5.07;0.98;;;;;;;;;;5027009;28;20142;-77
2022/08/09 13:38:28;;;;;;;1.95;0.90;;;;;;;;;;5030949;28;20072;-76
2022/08/09 13:41:22;;;;;;;1.73;0.88;;;;;;;;;;5025535;28;20042;-76
2022/08/09 13:44:09;;;;;;;5.88;0.80;;;;;;;;;;5019689;28;20058;-76
2022/08/09 13:46:43;;;;;;;3.00;0.90;;;;;;;;;;5022833;28;20054;-77
2022/08/09 13:49:31;;;;;;;3.40;0.93;;;;;;;;;;5021135;28;20053;-76
2022/08/09 13:52:04;;;;;;;1.15;0.70;;;;;;;;;;5026603;28;20141;-75
2022/08/09 13:54:35;;;;;;;2.15;0.85;;;;;;;;;;5027763;28;20058;-76
2022/08/09 13:57:15;;;;;;;1.55;0.77;;;;;;;;;;5027277;28;20105;-76
2022/08/09 14:00:03;;;;;;;1.20;0.75;;;;;;;;;;5025097;28;20513;-77
2022/08/09 14:02:32;;;;;;;2.60;0.93;;;;;;;;;;5026767;28;20863;-78
2022/08/09 14:05:08;;;;;;;1.33;0.90;;;;;;;;;;5026736;28;20100;-76
2022/08/09 14:07:38;;;;;;;1.38;0.70;;;;;;;;;;5028616;28;20057;-77
2022/08/09 14:10:08;;;;;;;1.95;0.82;;;;;;;;;;5027709;28;20106;-77
2022/08/09 14:12:43;;;;;;;0.80;0.60;;;;;;;;;;5028593;28;20093;-78
2022/08/09 14:15:11;;;;;;;5.10;0.95;;;;;;;;;;5037225;28;20050;-77
2022/08/09 14:17:58;;;;;;;1.13;0.70;;;;;;;;;;5028915;28;20038;-77
2022/08/09 14:20:45;;;;;;;1.95;1.00;;;;;;;;;;5025014;28;20046;-79
2022/08/09 14:23:15;;;;;;;3.33;0.75;;;;;;;;;;5033173;28;20047;-80
2022/08/09 14:26:02;;;;;;;1.90;0.80;;;;;;;;;;5035370;28;20113;-78
2022/08/09 14:28:32;;;;;;;1.58;0.80;;;;;;;;;;5036647;28;20098;-78
2022/08/09 14:31:00;;;;;;;4.18;1.10;;;;;;;;;;5038201;28;20073;-78
2022/08/09 14:33:27;;;;;;;1.70;0.88;;;;;;;;;;5034787;28;20048;-78
2022/08/09 14:35:58;;;;;;;2.58;0.80;;;;;;;;;;5043069;28;20061;-78
2022/08/09 14:38:45;;;;;;;2.40;0.80;;;;;;;;;;5034547;28;20097;-78
2022/08/09 14:41:21;;;;;;;0.70;0.70;;;;;;;;;;5031049;28;20053;-79
2022/08/09 14:44:07;;;;;;;2.53;0.90;;;;;;;;;;5029946;28;20058;-78
2022/08/09 14:46:38;;;;;;;2.92;0.82;;;;;;;;;;5037165;28;20030;-78
2022/08/09 14:49:28;;;;;;;5.78;0.80;;;;;;;;;;5037817;28;20058;-78
2022/08/09 14:52:09;;;;;;;5.78;1.00;;;;;;;;;;5033293;28;20050;-79
2022/08/09 14:54:41;;;;;;;3.95;0.90;;;;;;;;;;5043995;28;20058;-78
2022/08/09 14:57:08;;;;;;;2.13;0.80;;;;;;;;;;5031772;28;20039;-79
2022/08/09 14:59:35;;;;;;;4.43;0.98;;;;;;;;;;5033827;28;20034;-78
2022/08/09 15:02:05;;;;;;;1.45;0.70;;;;;;;;;;5032506;28;20050;-78
2022/08/09 15:04:38;;;;;;;1.23;0.80;;;;;;;;;;5045555;28;20140;-79
2022/08/09 15:07:09;;;;;;;0.70;0.70;;;;;;;;;;5034395;28;20144;-78
2022/08/09 15:09:36;;;;;;;0.95;0.85;;;;;;;;;;5031208;28;20037;-79
2022/08/09 15:12:23;;;;;;;1.02;0.77;;;;;;;;;;5035575;28;20048;-79
2022/08/09 15:14:53;;;;;;;1.08;0.65;;;;;;;;;;5028886;28;20050;-80
2022/08/09 15:17:20;;;;;;;1.23;0.77;;;;;;;;;;5035354;28;20113;-81
2022/08/09 15:19:51;;;;;;;0.90;0.70;;;;;;;;;;5027351;28;20062;-83
2022/08/09 15:22:26;;;;;;;2.70;0.82;;;;;;;;;;5022525;28;20061;-82
2022/08/09 15:24:53;;;;;;;3.15;0.90;;;;;;;;;;5022795;28;20050;-80
2022/08/09 15:27:25;;;;;;;2.72;0.90;;;;;;;;;;5025212;28;20133;-78
2022/08/09 15:29:53;;;;;;;0.93;0.63;;;;;;;;;;5031851;28;20048;-80
2022/08/09 15:32:41;;;;;;;0.80;0.70;;;;;;;;;;5035321;28;20052;-80
2022/08/09 15:35:14;;;;;;;0.88;0.60;;;;;;;;;;5038610;28;21645;-80
2022/08/09 15:38:02;;;;;;;2.53;1.00;;;;;;;;;;5043611;28;20054;-79
2022/08/09 15:40:37;;;;;;;1.75;0.90;;;;;;;;;;5036566;28;20042;-78
2022/08/09 15:43:10;;;;;;;;;;;;;;;;;;5037936;28;20049;-79